»·PEaware :: QXE3556 KPDX-KSEA

QXE3556 :: KPDX-KSEA

FLIGHT INFORMATION

Flight Status: Arrived
Operator:
Horizon Air
More flights by this operator :: More flights under this callsign
Pilot: Trevel L P. (20826)
Aircraft: DEHAVILLAND DASH 8 400
(DH8D)
More flights by this aircraft type
Origin: KPDX Portland Intl
United States
Destination: KSEA Seattle-Tacoma Intl
United States
More flights between these airports :: More routes between these airports
Route: BTG OLM2
File this flight plan on PilotEdge
Remarks: RMK / SIMBRIEF
Altitude:
(Current/Filed)
16,000ft
Speed:
(Current/Filed)
305kts
Departed: 02-Feb-21 09:18 PM
Arrived: 02-Feb-21 09:56 PM
Distance/Time
Traveled:
112nm/0:38
Distance/Time
To Go:
Arrived

Flight Plot

Page will automatically refresh every two minutes.

Flight plan parsing failed; only flown route is shown


Map Options




Map Legend


Flown Route
Filed Route
Departure Airport
Arrival Airport
Navaid (VOR, NDB)
Fix

Horizontal Profiles

Position Reports

Time Latitude Longitude Heading Altitude Ground
Speed
02-Feb-21 20:54 45.589797 -122.590254 209 38ft 0kts
02-Feb-21 20:55 45.589797 -122.590254 209 38ft 0kts
02-Feb-21 20:56 45.589797 -122.590254 209 38ft 0kts
02-Feb-21 20:57 45.589797 -122.590254 209 38ft 0kts
02-Feb-21 20:58 45.589797 -122.590254 209 38ft 0kts
02-Feb-21 20:59 45.589797 -122.590254 209 38ft 0kts
02-Feb-21 21:00 45.589797 -122.590254 209 38ft 0kts
02-Feb-21 21:01 45.589797 -122.590254 209 38ft 0kts
02-Feb-21 21:02 45.589797 -122.590254 209 38ft 0kts
02-Feb-21 21:03 45.589797 -122.590254 209 38ft 0kts
02-Feb-21 21:04 45.589797 -122.590254 209 38ft 0kts
02-Feb-21 21:05 45.589797 -122.590254 209 38ft 0kts
02-Feb-21 21:06 45.589797 -122.590254 209 38ft 0kts
02-Feb-21 21:07 45.590013 -122.590090 207 38ft 2kts
02-Feb-21 21:08 45.590512 -122.590251 129 38ft 0kts
02-Feb-21 21:09 45.590512 -122.590251 129 38ft 0kts
02-Feb-21 21:10 45.590512 -122.590251 129 38ft 0kts
02-Feb-21 21:11 45.590513 -122.590251 129 38ft 0kts
02-Feb-21 21:12 45.590502 -122.590233 129 38ft 0kts
02-Feb-21 21:13 45.591289 -122.592110 297 38ft 0kts
02-Feb-21 21:14 45.593503 -122.597754 296 38ft 0kts
02-Feb-21 21:15 45.594564 -122.597376 43 38ft 0kts
02-Feb-21 21:16 45.594895 -122.595889 115 38ft 0kts
02-Feb-21 21:17 45.583964 -122.566232 109 1042ft 44kts
02-Feb-21 21:18 45.574882 -122.508757 105 3322ft 137kts
02-Feb-21 21:19 45.568854 -122.436847 75 5871ft 167kts
02-Feb-21 21:20 45.618373 -122.422122 331 8526ft 139kts
02-Feb-21 21:21 45.672596 -122.450145 329 11195ft 198kts
02-Feb-21 21:22 45.726281 -122.478523 327 13389ft 145kts
02-Feb-21 21:23 45.782214 -122.509122 328 14946ft 207kts
02-Feb-21 21:24 45.849747 -122.546850 330 15911ft 209kts
02-Feb-21 21:25 45.927569 -122.589499 332 15976ft 233kts
02-Feb-21 21:26 46.011476 -122.634593 333 15963ft 326kts
02-Feb-21 21:27 46.098659 -122.677966 340 15957ft 293kts
02-Feb-21 21:28 46.190705 -122.703178 345 15952ft 322kts
02-Feb-21 21:29 46.285514 -122.725947 344 15950ft 294kts
02-Feb-21 21:30 46.380012 -122.749949 344 15943ft 279kts
02-Feb-21 21:31 46.471566 -122.773281 344 15933ft 333kts
02-Feb-21 21:32 46.563096 -122.796679 344 15925ft 300kts
02-Feb-21 21:33 46.655324 -122.820372 345 15920ft 283kts
02-Feb-21 21:34 46.749715 -122.844537 345 15917ft 273kts
02-Feb-21 21:35 46.843644 -122.868750 345 15917ft 268kts
02-Feb-21 21:36 46.937812 -122.892773 347 15913ft 334kts
02-Feb-21 21:37 47.017782 -122.846939 40 15921ft 306kts
02-Feb-21 21:38 47.091573 -122.748626 40 15787ft 291kts
02-Feb-21 21:39 47.166431 -122.653215 40 14218ft 287kts
02-Feb-21 21:40 47.234469 -122.566127 40 12989ft 302kts
02-Feb-21 21:41 47.292720 -122.490725 41 12678ft 258kts
02-Feb-21 21:42 47.358886 -122.460822 359 12156ft 248kts
02-Feb-21 21:43 47.427427 -122.455478 0 11546ft 232kts
02-Feb-21 21:44 47.495006 -122.450873 358 9992ft 252kts
02-Feb-21 21:45 47.565094 -122.448257 359 8777ft 247kts
02-Feb-21 21:46 47.635160 -122.446202 359 7188ft 253kts
02-Feb-21 21:47 47.701908 -122.436418 34 5443ft 249kts
02-Feb-21 21:48 47.709024 -122.357533 143 3866ft 232kts
02-Feb-21 21:49 47.663681 -122.330070 168 3019ft 167kts
02-Feb-21 21:50 47.617414 -122.319806 175 3009ft 169kts
02-Feb-21 21:51 47.568600 -122.317012 179 2481ft 187kts
02-Feb-21 21:52 47.524216 -122.317348 179 1412ft 178kts
02-Feb-21 21:53 47.487979 -122.317427 179 887ft 150kts
02-Feb-21 21:54 47.457591 -122.317798 181 441ft 109kts
02-Feb-21 21:55 47.448626 -122.317254 155 441ft 7kts

Navigation Log

Ident Type
Flight plan parsing failed, navigation log unavailable